Time;durP1;ratioP1;P1;durP2;ratioP2;P2;SDS_P1;SDS_P2;PMS_P1;PMS_P2;Temp;Humidity;BMP_temperature;BMP_pressure;BME280_temperature;BME280_humidity;BME280_pressure;Samples;Min_cycle;Max_cycle;Signal;HPM_P1;HPM_P2
2022/08/14 00:00:23;;;;;;;16.50;11.40;;;;;;;18.87;91.13;98015.75;106445;1277;138285;-89
2022/08/14 00:03:05;;;;;;;15.90;11.00;;;;;;;18.84;91.23;98014.95;106610;1277;25362;-90
2022/08/14 00:05:31;;;;;;;14.40;10.80;;;;;;;18.82;91.29;98016.96;106482;1275;138822;-90
2022/08/14 00:07:58;;;;;;;12.30;10.10;;;;;;;18.78;91.31;98009.45;106267;1277;22644;-90
2022/08/14 00:10:25;;;;;;;13.40;10.00;;;;;;;18.77;91.45;98010.21;106171;1277;25468;-89
2022/08/14 00:12:53;;;;;;;14.50;10.10;;;;;;;18.74;91.57;98000.94;105919;1277;138362;-90
2022/08/14 00:15:28;;;;;;;11.70;10.00;;;;;;;18.71;91.61;98000.56;107090;1277;25249;-90
2022/08/14 00:17:56;;;;;;;13.20;10.60;;;;;;;18.66;91.81;97991.30;106222;1277;139005;-91
2022/08/14 00:20:26;;;;;;;13.90;10.60;;;;;;;18.67;91.91;97993.67;106299;1277;22815;-90
2022/08/14 00:22:54;;;;;;;13.70;11.40;;;;;;;18.65;92.10;97990.77;106681;1277;24210;-91
2022/08/14 00:25:24;;;;;;;13.80;11.50;;;;;;;18.65;92.07;97995.02;105987;1277;138362;-90
2022/08/14 00:27:58;;;;;;;16.00;11.40;;;;;;;18.66;92.31;97991.48;106488;1277;24330;-91
2022/08/14 00:30:25;;;;;;;14.20;10.90;;;;;;;18.67;92.46;97986.04;106373;1277;138269;-91
2022/08/14 00:32:52;;;;;;;14.60;11.00;;;;;;;18.68;92.27;97986.73;106397;1275;22551;-90
2022/08/14 00:35:19;;;;;;;18.40;12.10;;;;;;;18.66;92.21;97986.77;106236;1277;24390;-89
2022/08/14 00:37:47;;;;;;;13.10;11.80;;;;;;;18.65;92.35;97984.43;105802;1277;138709;-89
2022/08/14 00:40:17;;;;;;;14.80;11.20;;;;;;;18.65;92.12;97980.30;106261;1276;22550;-91
2022/08/14 00:42:44;;;;;;;14.00;11.30;;;;;;;18.61;92.22;97979.81;106044;1276;138758;-90
2022/08/14 00:45:14;;;;;;;15.90;11.70;;;;;;;18.58;92.24;97973.81;106190;1276;23285;-91
2022/08/14 00:47:47;;;;;;;15.70;11.80;;;;;;;18.53;92.46;97976.15;105892;1276;138458;-90
2022/08/14 00:50:16;;;;;;;;;;;;;;;18.49;92.61;97968.50;106148;1276;25319;-89
2022/08/14 00:52:46;;;;;;;18.20;12.10;;;;;;;18.44;92.92;97966.98;106211;1277;25488;-89
2022/08/14 00:55:15;;;;;;;15.30;12.60;;;;;;;18.37;93.22;97967.55;106660;1277;138599;-89
2022/08/14 00:57:42;;;;;;;15.40;11.80;;;;;;;18.31;93.66;97969.23;106138;1277;22589;-90
2022/08/14 01:00:13;;;;;;;14.00;12.50;;;;;;;18.28;94.02;97974.41;105941;1277;138533;-90
2022/08/14 01:02:42;;;;;;;17.10;13.10;;;;;;;18.25;94.19;97974.86;106076;1279;30628;-89
2022/08/14 01:05:22;;;;;;;14.80;12.40;;;;;;;18.24;94.35;97975.05;106598;1276;22559;-89
2022/08/14 01:07:56;;;;;;;14.90;12.30;;;;;;;18.25;94.58;97975.69;106218;1276;138768;-89
2022/08/14 01:10:49;;;;;;;16.00;12.50;;;;;;;18.27;94.62;97973.71;106375;1276;22539;-89
2022/08/14 01:13:20;;;;;;;14.40;12.50;;;;;;;18.32;94.68;97973.77;106063;1277;138206;-90
2022/08/14 01:15:51;;;;;;;15.40;11.60;;;;;;;18.35;94.69;97970.82;106115;1277;25316;-90
2022/08/14 01:21:05;;;;;;;13.60;11.60;;;;;;;18.43;94.58;97970.23;106290;1277;25484;-89
2022/08/14 01:23:35;;;;;;;14.80;11.40;;;;;;;18.46;94.50;97962.45;106488;1277;30527;-89
2022/08/14 01:26:03;;;;;;;14.50;12.30;;;;;;;18.48;94.30;97961.52;106241;1277;23367;-90
2022/08/14 01:28:33;;;;;;;17.70;12.60;;;;;;;18.49;94.16;97963.10;106674;1277;24493;-89
2022/08/14 01:31:04;;;;;;;15.20;11.70;;;;;;;18.51;94.09;97960.09;106530;1277;138453;-90
2022/08/14 01:33:31;;;;;;;15.90;12.10;;;;;;;18.50;93.96;97960.16;106067;1277;23506;-89
2022/08/14 01:35:59;;;;;;;15.90;12.50;;;;;;;18.51;94.01;97956.66;106289;1276;138562;-88
2022/08/14 01:38:35;;;;;;;16.40;12.80;;;;;;;18.50;93.75;97951.52;106411;1277;22565;-89
2022/08/14 01:41:06;;;;;;;16.80;12.60;;;;;;;18.47;93.72;97952.83;106431;1277;22575;-88
2022/08/14 01:43:44;;;;;;;15.20;12.80;;;;;;;18.47;93.87;97953.00;106154;1277;138225;-90
2022/08/14 01:46:12;;;;;;;17.00;12.80;;;;;;;18.47;93.85;97958.02;106352;1276;22561;-89
2022/08/14 01:48:39;;;;;;;16.50;13.10;;;;;;;18.47;93.83;97953.44;106611;1276;138122;-89
2022/08/14 01:51:07;;;;;;;18.20;13.50;;;;;;;18.49;93.89;97952.84;106281;1276;24248;-91
2022/08/14 01:53:34;;;;;;;15.70;12.80;;;;;;;18.52;93.86;97949.79;106315;1277;22601;-91
2022/08/14 01:56:04;;;;;;;19.50;13.00;;;;;;;18.56;93.89;97952.86;106394;1276;25358;-91
2022/08/14 01:58:31;;;;;;;17.40;12.60;;;;;;;18.60;93.68;97953.42;106665;1277;24262;-89
2022/08/14 02:00:58;;;;;;;17.70;12.90;;;;;;;18.62;93.61;97952.66;106091;1277;138121;-89
2022/08/14 02:03:29;;;;;;;15.00;12.30;;;;;;;18.64;93.41;97955.92;106262;1276;22923;-91
2022/08/14 02:05:58;;;;;;;17.60;12.20;;;;;;;18.66;93.10;97957.13;106252;1276;138276;-88
2022/08/14 02:08:29;;;;;;;15.90;12.20;;;;;;;18.68;93.15;97953.77;106466;1276;25498;-88
2022/08/14 02:13:39;;;;;;;17.70;12.30;;;;;;;18.67;92.46;97944.29;106138;1277;138404;-90
2022/08/14 02:16:06;;;;;;;16.30;12.60;;;;;;;18.67;92.58;97939.77;106766;1277;22728;-89
2022/08/14 02:18:32;;;;;;;17.10;12.10;;;;;;;18.65;92.34;97938.43;106153;1277;138113;-88
2022/08/14 02:21:03;;;;;;;15.50;11.80;;;;;;;18.62;92.22;97933.30;106289;1277;24354;-91
2022/08/14 02:23:31;;;;;;;15.10;12.10;;;;;;;18.62;92.41;97932.55;106315;1277;22559;-92
2022/08/14 02:26:03;;;;;;;14.50;11.90;;;;;;;18.62;92.49;97931.16;105902;1279;137973;-91
2022/08/14 02:28:30;;;;;;;15.70;11.70;;;;;;;18.65;92.73;97933.14;106244;1276;24261;-89
2022/08/14 02:31:00;;;;;;;17.30;12.00;;;;;;;18.68;92.50;97935.66;106098;1278;138832;-91
2022/08/14 02:33:27;;;;;;;18.00;13.30;;;;;;;18.70;92.40;97934.61;105981;1277;24403;-88
2022/08/14 02:35:54;;;;;;;17.20;11.70;;;;;;;18.73;92.51;97931.84;106425;1277;138656;-88
2022/08/14 02:38:20;;;;;;;16.70;13.10;;;;;;;18.73;92.14;97934.30;106254;1277;22597;-91
2022/08/14 02:40:47;;;;;;;18.00;12.30;;;;;;;18.72;91.95;97933.27;106260;1277;22552;-89
2022/08/14 02:43:16;;;;;;;17.70;12.40;;;;;;;18.70;92.09;97931.81;106450;1277;138313;-88
2022/08/14 02:45:44;;;;;;;13.50;11.70;;;;;;;18.71;92.13;97933.54;106558;1277;22574;-89
2022/08/14 02:48:12;;;;;;;14.80;12.60;;;;;;;18.69;92.04;97934.79;106402;1277;138692;-89
2022/08/14 02:50:41;;;;;;;14.80;11.70;;;;;;;18.68;91.90;97938.96;106595;1277;22576;-90
2022/08/14 02:53:10;;;;;;;19.00;12.30;;;;;;;18.65;92.02;97940.54;106448;1276;22574;-89
2022/08/14 02:55:40;;;;;;;15.50;12.90;;;;;;;18.64;92.17;97943.70;106066;1276;138473;-90
2022/08/14 02:58:07;;;;;;;14.90;12.10;;;;;;;18.62;92.19;97939.20;106426;1276;24428;-89
2022/08/14 03:00:34;;;;;;;14.80;12.70;;;;;;;18.62;92.37;97932.33;106246;1276;138410;-90
2022/08/14 03:03:03;;;;;;;16.20;12.60;;;;;;;18.63;92.47;97930.42;106382;1276;22897;-89
2022/08/14 03:05:31;;;;;;;16.10;12.50;;;;;;;18.63;92.40;97929.81;106243;1277;24415;-89
2022/08/14 03:08:10;;;;;;;15.40;12.70;;;;;;;18.64;92.50;97929.61;106195;1277;138179;-89
2022/08/14 03:10:42;;;;;;;19.40;13.00;;;;;;;18.66;92.28;97936.25;106428;1277;23786;-89
2022/08/14 03:13:09;;;;;;;17.60;13.30;;;;;;;18.66;92.04;97933.17;106367;1277;138045;-88
2022/08/14 03:15:54;;;;;;;18.00;13.40;;;;;;;18.66;92.04;97931.59;106406;1276;25244;-89
2022/08/14 03:18:22;;;;;;;17.50;13.60;;;;;;;18.66;92.23;97928.98;106138;1276;138426;-89
2022/08/14 03:20:50;;;;;;;16.40;12.90;;;;;;;18.65;92.22;97929.98;106367;1276;22844;-89
2022/08/14 03:23:19;;;;;;;18.90;13.80;;;;;;;18.66;92.35;97930.81;106162;1278;25533;-89
2022/08/14 03:25:45;;;;;;;16.10;12.70;;;;;;;18.66;92.16;97923.41;105862;1277;138412;-89
2022/08/14 03:28:14;;;;;;;16.60;13.60;;;;;;;18.62;92.00;97928.95;106695;1277;22544;-89
2022/08/14 03:30:41;;;;;;;17.10;13.70;;;;;;;18.58;92.11;97922.80;106135;1277;138291;-89
2022/08/14 03:33:10;;;;;;;17.10;13.60;;;;;;;18.59;92.29;97927.04;106230;1277;22590;-89
2022/08/14 03:35:38;;;;;;;;;;;;;;;18.59;92.34;97924.88;105969;1277;138486;-89
2022/08/14 03:38:09;;;;;;;16.30;12.80;;;;;;;18.59;92.47;97921.73;106515;1277;22633;-89
2022/08/14 03:40:38;;;;;;;21.00;14.00;;;;;;;18.60;92.48;97921.11;106167;1276;22780;-90
2022/08/14 03:43:06;;;;;;;19.90;13.70;;;;;;;18.59;92.43;97924.98;106337;1277;138319;-90
2022/08/14 03:45:34;;;;;;;17.60;13.60;;;;;;;18.58;92.53;97926.95;106502;1276;22727;-90
2022/08/14 03:48:04;;;;;;;17.50;13.30;;;;;;;18.57;92.47;97927.25;106351;1277;138339;-90
2022/08/14 03:50:31;;;;;;;18.20;14.20;;;;;;;18.57;92.61;97926.25;106189;1277;22570;-89
2022/08/14 03:53:02;;;;;;;19.00;14.80;;;;;;;18.57;92.58;97928.17;106250;1280;22566;-89
2022/08/14 03:55:29;;;;;;;19.40;14.20;;;;;;;18.59;92.70;97929.35;106107;1277;138525;-90
2022/08/14 03:57:56;;;;;;;19.10;13.30;;;;;;;18.61;92.73;97925.50;106372;1277;22585;-89
2022/08/14 04:00:22;;;;;;;18.70;13.10;;;;;;;18.58;92.41;97921.69;106275;1277;138092;-89
2022/08/14 04:02:51;;;;;;;19.90;14.10;;;;;;;18.56;92.64;97921.48;106180;1277;22667;-89
2022/08/14 04:05:18;;;;;;;17.10;13.50;;;;;;;18.56;92.58;97923.30;106379;1277;22510;-88
2022/08/14 04:07:45;;;;;;;19.50;13.70;;;;;;;18.55;92.52;97921.10;106179;1277;138249;-89
2022/08/14 04:10:13;;;;;;;18.10;13.50;;;;;;;18.54;92.69;97920.10;106244;1277;24305;-89
2022/08/14 04:12:40;;;;;;;16.30;12.30;;;;;;;18.51;92.66;97918.55;106358;1277;138646;-90
2022/08/14 04:15:07;;;;;;;20.20;14.00;;;;;;;18.51;92.80;97918.83;106275;1277;22569;-89
2022/08/14 04:17:35;;;;;;;19.80;13.30;;;;;;;18.49;92.82;97922.30;106493;1277;25474;-88
2022/08/14 04:20:05;;;;;;;17.80;12.70;;;;;;;18.47;92.85;97917.53;105436;1277;1400503;-89
2022/08/14 04:22:33;;;;;;;18.80;13.40;;;;;;;18.46;92.87;97916.45;106159;1277;22735;-88
2022/08/14 04:25:00;;;;;;;21.50;13.40;;;;;;;18.47;92.95;97916.38;106512;1277;138249;-89
2022/08/14 04:27:28;;;;;;;20.00;13.40;;;;;;;18.47;93.18;97917.98;106038;1277;24304;-89
2022/08/14 04:29:56;;;;;;;17.00;13.20;;;;;;;18.47;93.20;97916.77;106387;1277;138330;-89
2022/08/14 04:32:25;;;;;;;21.90;12.90;;;;;;;18.47;93.27;97916.00;106491;1277;22559;-89
2022/08/14 04:34:53;;;;;;;19.20;12.50;;;;;;;18.48;93.41;97919.55;106678;1277;22732;-89
2022/08/14 04:45:35;;;;;;;15.90;12.30;;;;;;;18.53;93.44;97915.31;106418;1277;24295;-89
2022/08/14 04:48:14;;;;;;;16.50;11.50;;;;;;;18.53;93.38;97916.13;106894;1276;139253;-89
2022/08/14 04:50:47;;;;;;;13.60;10.00;;;;;;;18.55;93.57;97917.57;106708;1277;22717;-89
2022/08/14 04:53:17;;;;;;;13.30;10.30;;;;;;;18.59;93.53;97916.05;106701;1277;22591;-88
2022/08/14 04:55:47;;;;;;;11.40;8.60;;;;;;;18.63;93.29;97911.05;106462;1277;138334;-89
2022/08/14 04:58:18;;;;;;;15.70;8.50;;;;;;;18.65;93.03;97915.48;106850;1277;22581;-88
2022/08/14 05:00:49;;;;;;;10.00;7.40;;;;;;;18.65;92.83;97909.09;106239;1274;138448;-88
2022/08/14 05:03:20;;;;;;;8.70;6.70;;;;;;;18.66;93.08;97904.98;106573;1277;24272;-91
2022/08/14 05:05:49;;;;;;;8.60;6.80;;;;;;;18.71;93.10;97900.27;106348;1277;138574;-89
2022/08/14 05:08:16;;;;;;;8.60;6.60;;;;;;;18.77;93.13;97899.64;106245;1277;22560;-89
2022/08/14 05:10:50;;;;;;;9.30;6.30;;;;;;;18.81;92.94;97896.90;106425;1277;22603;-90
2022/08/14 05:13:20;;;;;;;7.80;5.50;;;;;;;18.87;92.77;97903.62;106661;1277;138140;-89
2022/08/14 05:15:52;;;;;;;7.20;6.00;;;;;;;18.88;92.59;97900.66;106461;1278;24306;-89
2022/08/14 05:18:23;;;;;;;6.50;5.70;;;;;;;18.95;92.65;97904.32;106492;1274;138231;-89
2022/08/14 05:20:53;;;;;;;5.20;4.60;;;;;;;18.97;92.39;97905.96;106643;1274;24277;-89
2022/08/14 05:23:23;;;;;;;7.60;5.50;;;;;;;19.01;92.27;97909.02;107010;1277;23327;-90
2022/08/14 05:25:59;;;;;;;6.40;5.20;;;;;;;19.03;92.31;97904.83;106531;1277;137949;-89
2022/08/14 05:28:28;;;;;;;7.80;5.20;;;;;;;19.05;91.93;97906.23;106601;1277;32077;-89
2022/08/14 05:31:00;;;;;;;6.00;4.80;;;;;;;19.08;92.09;97903.98;106329;1277;138429;-89
2022/08/14 05:33:29;;;;;;;4.90;4.40;;;;;;;19.11;92.02;97907.05;106606;1277;25534;-90
2022/08/14 05:36:10;;;;;;;3.70;3.30;;;;;;;19.15;92.01;97904.03;106521;1277;138463;-90
2022/08/14 05:38:44;;;;;;;3.70;2.80;;;;;;;19.21;91.71;97901.64;106584;1274;24383;-90
2022/08/14 05:41:14;;;;;;;3.40;2.60;;;;;;;19.26;91.69;97896.77;106699;1277;25322;-90
2022/08/14 05:43:46;;;;;;;2.70;2.30;;;;;;;19.29;91.18;97895.28;106651;1277;138073;-90
2022/08/14 05:46:23;;;;;;;2.50;1.90;;;;;;;19.36;91.18;97896.83;107262;1274;22684;-90
2022/08/14 05:48:55;;;;;;;2.20;2.00;;;;;;;19.43;90.90;97889.98;106377;1277;138347;-89
2022/08/14 05:51:24;;;;;;;2.40;2.10;;;;;;;19.50;90.98;97891.63;106300;1277;22705;-88
2022/08/14 05:53:51;;;;;;;1.80;1.70;;;;;;;19.60;90.78;97887.58;106311;1277;138019;-88
2022/08/14 05:56:18;;;;;;;1.90;1.70;;;;;;;19.64;90.46;97892.53;106494;1277;24428;-89
2022/08/14 05:58:54;;;;;;;2.10;1.50;;;;;;;19.70;90.57;97893.08;106708;1277;22581;-89
2022/08/14 06:01:25;;;;;;;1.90;1.70;;;;;;;19.76;89.80;97897.75;106742;1277;138115;-89
2022/08/14 06:04:00;;;;;;;1.60;1.50;;;;;;;19.84;90.05;97902.40;107073;1277;22587;-89
2022/08/14 06:06:34;;;;;;;1.20;1.10;;;;;;;19.96;90.11;97904.09;106006;1277;137945;-89
2022/08/14 06:09:17;;;;;;;1.60;1.30;;;;;;;20.06;88.91;97901.39;106443;1277;30211;-89
2022/08/14 06:11:46;;;;;;;1.40;1.30;;;;;;;20.17;88.85;97907.76;106572;1277;138398;-89
2022/08/14 06:14:13;;;;;;;1.30;1.20;;;;;;;20.28;89.08;97905.54;106431;1277;24263;-89
2022/08/14 06:16:44;;;;;;;1.40;1.10;;;;;;;20.35;88.22;97907.92;106526;1278;23702;-89
2022/08/14 06:19:12;;;;;;;0.90;0.90;;;;;;;20.35;87.49;97907.60;106474;1280;137877;-89
2022/08/14 06:21:42;;;;;;;1.20;1.10;;;;;;;20.35;87.55;97907.11;106381;1278;24258;-89
2022/08/14 06:24:15;;;;;;;2.00;1.30;;;;;;;20.41;87.86;97908.11;106913;1277;138017;-89
2022/08/14 06:26:43;;;;;;;1.40;1.10;;;;;;;20.46;87.62;97906.98;106857;1277;23407;-89
2022/08/14 06:29:13;;;;;;;1.60;1.10;;;;;;;20.52;87.29;97910.41;106589;1277;22741;-89
2022/08/14 06:31:45;;;;;;;0.80;0.80;;;;;;;20.54;87.05;97909.13;107198;1277;25320;-89
2022/08/14 06:34:13;;;;;;;1.00;0.80;;;;;;;20.55;86.40;97905.20;106278;1277;22693;-89
2022/08/14 06:36:45;;;;;;;2.80;1.10;;;;;;;20.56;86.29;97905.73;106524;1277;137960;-88
2022/08/14 06:39:12;;;;;;;1.40;1.00;;;;;;;20.60;86.50;97900.70;106283;1277;25590;-89
2022/08/14 06:41:40;;;;;;;0.90;0.90;;;;;;;20.64;86.17;97900.58;106284;1280;22581;-88
2022/08/14 06:44:09;;;;;;;2.60;1.00;;;;;;;20.67;86.32;97901.66;106401;1277;22671;-88
2022/08/14 06:46:36;;;;;;;1.80;0.80;;;;;;;20.69;86.47;97897.34;106193;1277;22563;-88
2022/08/14 06:49:03;;;;;;;1.80;0.70;;;;;;;20.70;86.52;97892.55;106236;1277;137318;-89
2022/08/14 06:51:29;;;;;;;0.70;0.70;;;;;;;20.79;86.49;97898.09;106845;1277;25092;-89
2022/08/14 06:53:56;;;;;;;0.50;0.50;;;;;;;20.81;85.89;97897.11;106622;1277;138612;-89
2022/08/14 06:56:23;;;;;;;0.70;0.70;;;;;;;20.83;85.66;97894.50;106783;1280;23422;-88
2022/08/14 06:58:50;;;;;;;1.60;1.30;;;;;;;20.86;85.33;97897.08;106199;1279;24363;-88
2022/08/14 07:06:41;;;;;;;0.90;0.90;;;;;;;20.94;85.00;97894.98;106104;1276;137918;-88
2022/08/14 07:09:20;;;;;;;0.80;0.80;;;;;;;20.96;84.94;97890.55;106187;1277;25401;-88
2022/08/14 07:11:47;;;;;;;0.80;0.80;;;;;;;21.00;85.05;97892.02;106034;1277;137810;-89
2022/08/14 07:14:13;;;;;;;0.80;0.80;;;;;;;21.03;84.90;97893.11;106383;1277;24306;-89
2022/08/14 07:16:41;;;;;;;0.70;0.70;;;;;;;21.07;84.96;97890.58;107278;1277;25408;-88
2022/08/14 07:19:08;;;;;;;1.60;0.80;;;;;;;21.15;84.52;97892.90;107167;1278;139759;-88
2022/08/14 07:21:39;;;;;;;0.80;0.80;;;;;;;21.19;84.66;97895.14;106898;1276;22666;-89
2022/08/14 07:24:09;;;;;;;0.90;0.90;;;;;;;21.28;84.58;97895.36;106624;1274;137748;-88
2022/08/14 07:26:41;;;;;;;1.00;0.80;;;;;;;21.34;84.35;97897.23;107054;1276;26624;-88
2022/08/14 07:29:08;;;;;;;0.80;0.80;;;;;;;21.37;84.04;97903.91;106337;1277;22554;-88
2022/08/14 07:31:37;;;;;;;0.90;0.90;;;;;;;21.35;83.68;97903.48;106736;1277;137528;-88
2022/08/14 07:34:07;;;;;;;1.40;0.70;;;;;;;21.31;83.55;97901.02;106743;1277;22582;-88
2022/08/14 07:36:34;;;;;;;0.80;0.80;;;;;;;21.32;83.45;97899.64;106361;1277;137986;-88
2022/08/14 07:39:05;;;;;;;1.00;1.00;;;;;;;21.36;83.45;97901.39;107301;1277;22508;-87
2022/08/14 07:41:34;;;;;;;0.90;0.90;;;;;;;21.40;83.16;97902.37;107592;1277;25604;-88
2022/08/14 07:44:03;;;;;;;0.90;0.90;;;;;;;21.45;83.14;97899.50;106673;1277;137497;-87
2022/08/14 07:46:30;;;;;;;2.00;1.40;;;;;;;21.52;83.22;97900.66;106510;1279;22591;-88
2022/08/14 07:49:02;;;;;;;0.90;0.90;;;;;;;21.61;83.45;97902.80;106433;1277;137779;-88
2022/08/14 07:51:39;;;;;;;1.00;1.00;;;;;;;21.68;82.92;97901.90;106735;1278;32885;-87
2022/08/14 07:54:06;;;;;;;1.10;1.00;;;;;;;21.76;82.63;97906.91;106790;1277;138001;-87
2022/08/14 07:56:33;;;;;;;1.20;1.10;;;;;;;21.82;82.39;97912.55;106605;1277;22607;-87
2022/08/14 07:58:59;;;;;;;1.40;1.30;;;;;;;21.88;82.17;97916.05;106757;1277;23383;-87
2022/08/14 08:01:32;;;;;;;1.50;1.40;;;;;;;21.91;82.34;97916.23;106835;1277;137899;-87
2022/08/14 08:04:02;;;;;;;1.20;1.10;;;;;;;21.93;81.96;97914.11;107446;1277;22665;-87
2022/08/14 08:06:29;;;;;;;1.30;1.30;;;;;;;21.94;81.77;97909.00;106763;1277;138302;-86
2022/08/14 08:08:59;;;;;;;1.50;1.40;;;;;;;22.01;81.70;97909.98;106751;1278;22537;-89
2022/08/14 08:11:32;;;;;;;3.40;1.70;;;;;;;22.08;81.16;97907.48;107239;1277;22579;-86
2022/08/14 08:14:06;;;;;;;2.20;2.00;;;;;;;22.17;80.89;97907.40;106667;1274;137784;-87
2022/08/14 08:16:37;;;;;;;2.20;1.80;;;;;;;22.28;80.73;97908.09;106842;1277;22589;-86
2022/08/14 08:19:10;;;;;;;3.10;2.10;;;;;;;22.48;80.73;97907.38;106960;1277;137870;-86
2022/08/14 08:21:57;;;;;;;2.20;1.80;;;;;;;22.69;80.52;97901.02;106663;1277;22559;-86
2022/08/14 08:24:24;;;;;;;2.10;1.90;;;;;;;22.93;79.98;97897.62;106534;1277;137941;-86
2022/08/14 08:26:51;;;;;;;2.00;1.90;;;;;;;23.12;78.96;97896.66;107138;1277;22562;-85
2022/08/14 08:29:26;;;;;;;2.40;2.20;;;;;;;23.26;77.70;97891.38;106633;1277;22635;-85
2022/08/14 08:31:53;;;;;;;2.10;1.90;;;;;;;23.41;76.99;97894.44;107206;1274;137737;-85
2022/08/14 08:34:28;;;;;;;2.30;2.00;;;;;;;23.61;76.91;97900.77;107068;1277;22547;-85
2022/08/14 08:36:57;;;;;;;2.40;2.20;;;;;;;23.78;75.68;97902.61;107039;1274;137203;-85
2022/08/14 08:39:32;;;;;;;2.60;2.40;;;;;;;23.85;74.91;97905.62;107093;1277;22567;-85
2022/08/14 08:41:58;;;;;;;2.80;2.60;;;;;;;23.90;74.87;97905.17;106926;1277;137419;-85
2022/08/14 08:44:29;;;;;;;2.30;2.10;;;;;;;23.96;74.54;97903.45;107108;1274;24308;-85
2022/08/14 08:47:08;;;;;;;2.70;2.50;;;;;;;23.95;73.51;97898.10;106880;1275;25257;-84
2022/08/14 08:49:41;;;;;;;2.90;2.30;;;;;;;23.88;73.55;97900.11;106979;1274;137893;-85
2022/08/14 08:52:08;;;;;;;2.80;2.60;;;;;;;23.89;74.22;97901.16;107268;1277;22601;-84
2022/08/14 08:54:36;;;;;;;3.10;2.50;;;;;;;23.89;73.14;97898.31;106898;1277;138345;-85
2022/08/14 08:57:10;;;;;;;2.90;2.50;;;;;;;23.89;72.66;97893.08;107268;1277;22587;-85
2022/08/14 08:59:37;;;;;;;3.30;3.00;;;;;;;23.97;72.73;97893.07;107264;1277;23941;-84
2022/08/14 09:02:08;;;;;;;2.80;2.60;;;;;;;24.01;72.38;97894.94;106904;1274;137702;-85
2022/08/14 09:04:43;;;;;;;3.70;2.80;;;;;;;23.99;72.47;97896.63;107162;1277;22563;-84
2022/08/14 09:07:12;;;;;;;4.20;2.80;;;;;;;23.92;72.50;97901.83;106613;1274;137218;-84
2022/08/14 09:10:00;;;;;;;3.70;3.40;;;;;;;23.84;72.96;97900.30;107128;1274;22541;-84
2022/08/14 09:12:32;;;;;;;3.90;2.80;;;;;;;23.75;72.68;97901.52;106765;1274;137970;-84
2022/08/14 09:15:00;;;;;;;4.00;3.40;;;;;;;23.66;73.09;97901.87;106746;1277;22653;-85
2022/08/14 09:17:27;;;;;;;3.90;3.60;;;;;;;23.56;72.75;97901.68;106222;1277;24284;-87
2022/08/14 09:19:57;;;;;;;5.80;4.70;;;;;;;23.45;73.23;97898.05;106616;1277;137169;-85
2022/08/14 09:22:24;;;;;;;6.90;5.70;;;;;;;23.36;73.83;97895.46;106475;1278;25118;-85
2022/08/14 09:24:54;;;;;;;6.90;6.20;;;;;;;23.33;73.97;97897.95;106846;1277;137271;-85
2022/08/14 09:27:25;;;;;;;7.30;6.30;;;;;;;23.27;73.97;97895.95;106382;1277;22652;-86
2022/08/14 09:29:52;;;;;;;8.50;7.60;;;;;;;23.22;74.18;97891.26;106254;1277;137673;-85
2022/08/14 09:32:42;;;;;;;9.20;8.30;;;;;;;23.26;74.04;97891.22;106364;1277;25375;-85
2022/08/14 09:35:20;;;;;;;9.80;8.80;;;;;;;23.40;74.25;97889.48;106271;1277;24893;-85
2022/08/14 09:38:14;;;;;;;9.10;8.20;;;;;;;23.58;74.57;97887.78;106615;1277;137307;-85
2022/08/14 09:40:47;;;;;;;7.30;6.60;;;;;;;23.78;74.21;97888.64;106451;1277;25382;-85
2022/08/14 09:43:34;;;;;;;6.80;6.10;;;;;;;23.96;74.02;97889.94;106372;1278;138704;-85
2022/08/14 09:46:06;;;;;;;7.20;6.40;;;;;;;24.12;73.66;97896.73;106797;1278;22569;-85
2022/08/14 09:48:33;;;;;;;6.60;6.00;;;;;;;24.25;72.75;97899.29;106334;1277;137438;-85
2022/08/14 09:51:01;;;;;;;6.70;6.00;;;;;;;24.32;71.77;97903.48;106722;1277;24227;-84
2022/08/14 09:53:43;;;;;;;7.40;6.40;;;;;;;24.43;71.51;97897.63;106566;1277;22610;-84
2022/08/14 09:56:10;;;;;;;9.00;7.10;;;;;;;24.64;70.97;97896.44;106396;1277;136990;-84
2022/08/14 09:58:43;;;;;;;6.40;5.70;;;;;;;24.82;70.82;97892.94;106356;1277;23792;-84
2022/08/14 10:01:15;;;;;;;6.50;5.80;;;;;;;24.94;70.90;97892.02;106256;1277;137086;-84
2022/08/14 10:03:52;;;;;;;6.60;6.00;;;;;;;25.01;69.93;97894.36;106304;1277;25355;-84
2022/08/14 10:06:24;;;;;;;6.50;5.90;;;;;;;25.02;69.70;97894.38;106065;1275;137665;-84
2022/08/14 10:09:05;;;;;;;7.50;6.00;;;;;;;25.05;69.25;97894.38;106334;1275;22538;-84
2022/08/14 10:11:35;;;;;;;6.50;5.90;;;;;;;25.11;68.89;97891.77;107080;1274;22590;-83
2022/08/14 10:14:23;;;;;;;6.00;5.40;;;;;;;25.27;68.84;97886.03;106211;1277;137268;-83
2022/08/14 10:16:55;;;;;;;7.40;6.00;;;;;;;25.56;68.36;97885.84;106320;1277;24247;-83
2022/08/14 10:19:27;;;;;;;6.60;6.00;;;;;;;25.71;67.62;97880.73;106511;1277;137178;-83
2022/08/14 10:22:07;;;;;;;6.20;5.60;;;;;;;25.89;67.15;97878.05;106177;1277;24222;-83
2022/08/14 10:24:39;;;;;;;6.90;6.00;;;;;;;26.03;65.68;97871.09;106438;1274;137245;-83
2022/08/14 10:27:17;;;;;;;5.90;5.30;;;;;;;26.16;65.54;97870.69;106500;1275;23934;-84
2022/08/14 10:29:49;;;;;;;5.60;4.80;;;;;;;26.34;64.64;97872.13;106598;1274;22625;-84
2022/08/14 10:32:17;;;;;;;5.30;4.60;;;;;;;26.59;63.99;97873.00;106373;1278;25416;-83
2022/08/14 10:34:46;;;;;;;5.20;4.50;;;;;;;26.87;63.23;97874.48;106682;1277;22551;-83
2022/08/14 10:37:15;;;;;;;4.70;4.30;;;;;;;27.13;62.51;97872.45;107090;1277;137383;-83
2022/08/14 10:39:45;;;;;;;4.40;4.00;;;;;;;27.31;60.85;97874.17;107834;1277;22738;-83
2022/08/14 10:42:14;;;;;;;4.30;3.90;;;;;;;27.50;60.21;97877.00;107366;1277;137615;-82
2022/08/14 10:44:48;;;;;;;4.70;4.20;;;;;;;27.53;59.57;97876.50;106941;1278;24237;-83
2022/08/14 10:47:17;;;;;;;3.90;3.60;;;;;;;27.57;59.15;97874.64;106886;1277;22551;-82
2022/08/14 10:49:58;;;;;;;4.20;3.90;;;;;;;27.77;59.52;97876.52;106717;1277;137297;-82
2022/08/14 10:52:31;;;;;;;4.90;4.10;;;;;;;28.05;58.76;97879.56;107154;1277;23428;-83
2022/08/14 10:55:12;;;;;;;4.60;4.20;;;;;;;28.19;57.80;97875.38;106823;1277;137386;-82
2022/08/14 10:58:12;;;;;;;4.90;4.40;;;;;;;28.03;57.69;97878.01;106823;1278;24536;-82
2022/08/14 11:00:57;;;;;;;5.10;4.30;;;;;;;27.80;57.81;97875.14;107394;1277;137269;-82
2022/08/14 11:03:37;;;;;;;3.90;3.50;;;;;;;27.69;57.46;97874.86;106586;1277;22691;-83
2022/08/14 11:06:17;;;;;;;4.10;3.80;;;;;;;27.69;56.98;97870.70;106516;1277;137806;-84
2022/08/14 11:08:44;;;;;;;4.90;4.10;;;;;;;27.55;57.75;97872.23;106394;1277;23128;-85
2022/08/14 11:11:11;;;;;;;4.70;4.30;;;;;;;27.40;58.28;97871.79;106386;1277;22663;-83
2022/08/14 11:13:42;;;;;;;7.70;4.80;;;;;;;27.29;58.74;97875.65;106215;1278;137177;-86
2022/08/14 11:16:10;;;;;;;5.20;4.70;;;;;;;27.24;58.66;97871.70;106359;1277;25251;-84
2022/08/14 11:18:37;;;;;;;4.60;4.20;;;;;;;27.23;59.01;97870.16;106422;1277;137203;-86
2022/08/14 11:21:07;;;;;;;5.30;4.00;;;;;;;27.26;59.52;97875.42;106494;1277;22549;-84
2022/08/14 11:23:38;;;;;;;4.00;3.70;;;;;;;27.23;59.62;97877.20;106194;1278;22544;-83
2022/08/14 11:26:07;;;;;;;4.20;3.60;;;;;;;27.30;59.79;97873.52;106613;1277;137307;-84
2022/08/14 11:28:37;;;;;;;;;;;;;;;27.35;59.32;97876.41;106500;1277;23899;-83
2022/08/14 11:31:09;;;;;;;3.30;3.00;;;;;;;27.46;59.01;97878.11;107637;1276;124557;-83
2022/08/14 11:33:37;;;;;;;3.20;2.90;;;;;;;27.62;58.84;97872.04;107325;1276;22722;-83
2022/08/14 11:36:08;;;;;;;3.20;2.90;;;;;;;27.61;58.14;97873.44;107137;1277;137418;-83
2022/08/14 11:38:44;;;;;;;3.60;3.30;;;;;;;27.52;58.03;97872.95;107086;1277;23514;-83
2022/08/14 11:41:15;;;;;;;4.80;3.00;;;;;;;27.41;58.07;97876.53;107049;1277;25337;-83
2022/08/14 11:43:46;;;;;;;3.20;2.90;;;;;;;27.35;58.68;97880.96;107165;1277;137241;-84
2022/08/14 11:46:14;;;;;;;3.40;2.90;;;;;;;27.41;58.58;97884.11;107305;1277;30641;-83
2022/08/14 11:48:47;;;;;;;3.70;3.40;;;;;;;27.61;58.96;97880.55;107363;1277;137489;-83
2022/08/14 11:51:16;;;;;;;3.10;2.80;;;;;;;27.93;59.03;97881.04;107406;1277;24482;-84